Time;durP1;ratioP1;P1;durP2;ratioP2;P2;SDS_P1;SDS_P2;PMS_P1;PMS_P2;Temp;Humidity;BMP_temperature;BMP_pressure;BME280_temperature;BME280_humidity;BME280_pressure;Samples;Min_cycle;Max_cycle;Signal;HPM_P1;HPM_P2
2022/09/20 00:01:09;;;;;;;7.25;1.08;;;12.60;99.90;;;;;;4772203;30;20039;-87
2022/09/20 00:03:40;;;;;;;12.18;1.20;;;12.60;99.90;;;;;;4772319;29;20054;-85
2022/09/20 00:06:09;;;;;;;11.13;1.23;;;12.60;99.90;;;;;;4772139;29;20050;-86
2022/09/20 00:08:35;;;;;;;8.20;0.90;;;12.60;99.90;;;;;;4772222;30;20058;-86
2022/09/20 00:11:16;;;;;;;8.30;1.25;;;12.70;99.90;;;;;;4772145;30;20078;-85
2022/09/20 00:13:43;;;;;;;9.60;1.23;;;12.60;99.90;;;;;;4772035;30;20072;-86
2022/09/20 00:16:14;;;;;;;11.57;1.10;;;12.60;99.90;;;;;;4772184;29;20084;-85
2022/09/20 00:18:40;;;;;;;5.80;0.90;;;12.60;99.90;;;;;;4772056;30;20376;-86
2022/09/20 00:21:05;;;;;;;7.40;0.75;;;12.60;99.90;;;;;;4772061;30;20496;-86
2022/09/20 00:23:31;;;;;;;5.72;1.42;;;12.60;99.90;;;;;;4772315;30;20047;-86
2022/09/20 00:26:00;;;;;;;6.53;1.00;;;12.50;99.90;;;;;;4772141;30;20453;-85
2022/09/20 00:28:26;;;;;;;4.95;0.80;;;12.60;99.90;;;;;;4772170;30;20085;-85
2022/09/20 00:30:54;;;;;;;5.40;1.10;;;12.50;99.90;;;;;;4773608;30;20051;-87
2022/09/20 00:33:21;;;;;;;6.30;0.80;;;12.60;99.90;;;;;;4791514;30;20399;-86
2022/09/20 00:35:47;;;;;;;6.40;1.00;;;12.60;99.90;;;;;;4775576;30;20062;-86
2022/09/20 00:38:13;;;;;;;5.05;0.88;;;12.50;99.90;;;;;;4775330;30;20063;-83
2022/09/20 00:40:40;;;;;;;7.03;0.88;;;12.60;99.90;;;;;;4775415;30;20087;-85
2022/09/20 00:43:06;;;;;;;6.00;0.70;;;12.60;99.90;;;;;;4775131;30;20078;-86
2022/09/20 00:45:32;;;;;;;6.75;1.08;;;12.70;99.90;;;;;;4775604;29;20105;-84
2022/09/20 00:48:44;;;;;;;8.82;1.05;;;12.70;99.90;;;;;;4775299;30;20059;-85
2022/09/20 00:51:16;;;;;;;7.95;1.13;;;12.70;99.90;;;;;;4775116;30;20388;-86
2022/09/20 00:57:11;;;;;;;5.53;0.55;;;12.70;99.90;;;;;;4774939;30;20055;-85
2022/09/20 01:00:21;;;;;;;5.20;0.80;;;12.60;99.90;;;;;;4774814;30;20164;-85
2022/09/20 01:03:06;;;;;;;6.13;0.70;;;12.60;99.90;;;;;;4775020;30;20407;-87
2022/09/20 01:12:54;;;;;;;6.43;0.88;;;12.70;99.90;;;;;;4791173;30;20100;-85
2022/09/20 01:15:22;;;;;;;6.03;0.95;;;12.60;99.90;;;;;;4774974;30;20059;-83
2022/09/20 01:17:51;;;;;;;4.10;0.80;;;12.70;99.90;;;;;;4775136;30;20082;-87
2022/09/20 01:20:26;;;;;;;4.18;0.60;;;12.70;99.90;;;;;;4774926;30;20067;-85
2022/09/20 01:23:04;;;;;;;3.70;0.68;;;12.60;99.90;;;;;;4775007;30;20055;-85
2022/09/20 01:25:47;;;;;;;7.50;0.63;;;12.60;99.90;;;;;;4774580;30;20055;-85
2022/09/20 01:28:14;;;;;;;6.55;2.05;;;12.60;99.90;;;;;;4774808;30;20132;-85
2022/09/20 01:30:52;;;;;;;5.13;1.00;;;12.60;99.90;;;;;;4774575;30;20158;-85
2022/09/20 01:33:30;;;;;;;3.92;1.40;;;12.60;99.90;;;;;;4774806;30;20136;-86
2022/09/20 01:35:59;;;;;;;5.10;1.15;;;12.60;99.90;;;;;;4774616;30;20051;-86
2022/09/20 01:38:40;;;;;;;4.90;1.02;;;12.60;99.90;;;;;;4774643;30;20074;-85
2022/09/20 01:41:14;;;;;;;9.65;1.23;;;12.50;99.90;;;;;;4774392;29;20055;-85
2022/09/20 01:43:43;;;;;;;6.97;0.90;;;12.50;99.90;;;;;;4773823;30;20435;-84
2022/09/20 01:48:41;;;;;;;7.05;0.93;;;12.50;99.90;;;;;;4789251;30;20058;-80
2022/09/20 01:51:41;;;;;;;3.95;0.85;;;12.50;99.90;;;;;;4790205;30;20055;-81
2022/09/20 01:54:29;;;;;;;7.07;0.90;;;12.60;99.90;;;;;;4774209;30;20059;-80
2022/09/20 01:57:01;;;;;;;10.23;0.90;;;12.60;99.90;;;;;;4774319;30;20055;-79
2022/09/20 01:59:38;;;;;;;4.68;0.60;;;12.60;99.90;;;;;;4774309;30;20055;-79
2022/09/20 02:02:20;;;;;;;8.43;0.82;;;12.60;99.90;;;;;;4774220;30;20051;-79
2022/09/20 02:05:04;;;;;;;5.33;0.63;;;12.70;99.90;;;;;;4790222;29;20058;-79
2022/09/20 02:07:54;;;;;;;3.88;0.63;;;12.70;99.90;;;;;;4773866;30;20057;-78
2022/09/20 02:10:53;;;;;;;4.68;0.55;;;12.70;99.90;;;;;;4790040;29;20051;-79
2022/09/20 02:13:30;;;;;;;4.63;0.90;;;12.70;99.90;;;;;;4749160;30;20404;-79
2022/09/20 02:16:15;;;;;;;3.97;0.73;;;12.70;99.90;;;;;;4789847;29;20403;-79
2022/09/20 02:19:02;;;;;;;3.97;0.63;;;12.70;99.90;;;;;;4773820;30;20062;-78
2022/09/20 02:22:07;;;;;;;4.40;1.10;;;12.60;99.90;;;;;;4790097;30;20051;-79
2022/09/20 02:25:21;;;;;;;3.47;0.85;;;12.60;99.90;;;;;;4773953;30;20108;-78
2022/09/20 02:27:46;;;;;;;4.05;0.63;;;12.60;99.90;;;;;;4726531;30;20207;-79
2022/09/20 02:30:33;;;;;;;4.38;1.23;;;12.60;99.90;;;;;;4773404;30;20516;-79
2022/09/20 02:33:07;;;;;;;3.45;0.55;;;12.60;99.90;;;;;;4773791;30;20047;-78
2022/09/20 02:36:04;;;;;;;7.30;0.73;;;12.60;99.90;;;;;;4773471;30;20194;-78
2022/09/20 02:38:58;;;;;;;6.25;1.80;;;12.60;99.90;;;;;;4789824;30;20087;-78
2022/09/20 02:41:45;;;;;;;11.10;0.88;;;12.70;99.90;;;;;;4789513;30;20514;-78
2022/09/20 02:45:01;;;;;;;3.70;0.68;;;12.70;99.90;;;;;;4789497;30;20086;-78
2022/09/20 02:47:37;;;;;;;4.13;1.27;;;12.70;99.90;;;;;;4750621;30;20051;-78
2022/09/20 02:50:09;;;;;;;5.13;0.90;;;12.80;99.90;;;;;;4773212;30;20058;-78
2022/09/20 02:52:49;;;;;;;6.47;1.05;;;12.80;99.90;;;;;;4789614;29;20443;-79
2022/09/20 02:55:56;;;;;;;4.40;0.90;;;12.80;99.90;;;;;;4789352;30;20091;-78
2022/09/20 02:58:51;;;;;;;3.50;0.47;;;12.80;99.90;;;;;;4772953;30;20085;-80
2022/09/20 03:01:42;;;;;;;4.05;0.47;;;12.90;99.90;;;;;;4789370;30;20047;-79
2022/09/20 03:04:46;;;;;;;7.05;0.75;;;12.80;99.90;;;;;;4789224;29;20057;-80
2022/09/20 03:07:31;;;;;;;4.93;0.60;;;12.90;99.90;;;;;;4788979;30;20124;-79
2022/09/20 03:10:08;;;;;;;5.97;0.60;;;12.90;99.90;;;;;;4772957;30;20077;-79
2022/09/20 03:12:52;;;;;;;2.75;0.57;;;12.90;99.90;;;;;;4772940;30;20053;-79
2022/09/20 03:15:30;;;;;;;5.25;0.65;;;12.80;99.90;;;;;;4772819;29;20055;-79
2022/09/20 03:18:11;;;;;;;6.38;0.93;;;12.70;99.90;;;;;;4789072;30;20114;-79
2022/09/20 03:21:04;;;;;;;5.30;0.60;;;12.60;99.90;;;;;;4772803;30;20047;-78
2022/09/20 03:23:59;;;;;;;5.35;0.70;;;12.50;99.90;;;;;;4788912;30;20082;-78
2022/09/20 03:26:39;;;;;;;5.45;0.45;;;12.50;99.90;;;;;;4772620;30;20055;-79
2022/09/20 03:29:54;;;;;;;4.25;1.02;;;12.60;99.90;;;;;;4788811;30;20047;-78
2022/09/20 03:32:22;;;;;;;5.75;0.90;;;12.60;99.90;;;;;;4764744;30;20112;-78
2022/09/20 03:35:05;;;;;;;5.28;0.75;;;12.70;99.90;;;;;;4788810;29;20130;-78
2022/09/20 03:37:39;;;;;;;4.63;0.70;;;12.70;99.90;;;;;;4788790;30;20100;-79
2022/09/20 03:40:45;;;;;;;4.00;0.55;;;12.70;99.90;;;;;;4788550;30;20128;-78
2022/09/20 03:43:34;;;;;;;8.02;1.00;;;12.80;99.90;;;;;;4788698;30;20054;-79
2022/09/20 03:46:21;;;;;;;6.28;1.20;;;12.80;99.90;;;;;;4772766;30;20099;-79
2022/09/20 03:48:49;;;;;;;4.00;0.63;;;12.90;99.90;;;;;;4772494;30;20086;-79
2022/09/20 03:51:26;;;;;;;2.97;0.60;;;12.90;99.90;;;;;;4772877;30;20483;-78
2022/09/20 03:54:10;;;;;;;6.25;0.60;;;12.90;99.90;;;;;;4788851;29;20054;-78
2022/09/20 03:57:02;;;;;;;4.35;0.65;;;12.90;99.90;;;;;;4772436;30;20051;-79
2022/09/20 03:59:46;;;;;;;5.15;1.05;;;13.00;99.90;;;;;;4788836;30;20048;-78
2022/09/20 04:02:29;;;;;;;4.65;0.82;;;12.90;99.90;;;;;;4772546;30;20059;-79
2022/09/20 04:05:01;;;;;;;4.40;0.60;;;12.90;99.90;;;;;;4788823;29;20144;-78
2022/09/20 04:07:26;;;;;;;8.60;0.90;;;13.00;99.90;;;;;;4776204;30;20051;-79
2022/09/20 04:10:01;;;;;;;5.43;0.70;;;12.90;99.90;;;;;;4791883;30;20059;-79
2022/09/20 04:12:50;;;;;;;4.72;0.70;;;12.90;99.90;;;;;;4775870;30;20054;-78
2022/09/20 04:15:25;;;;;;;5.72;1.50;;;12.90;99.90;;;;;;4769569;30;20138;-78
2022/09/20 04:17:50;;;;;;;4.93;0.80;;;12.90;99.90;;;;;;4775811;30;20051;-79
2022/09/20 04:20:20;;;;;;;6.47;0.90;;;12.90;99.90;;;;;;4775656;30;20055;-78
2022/09/20 04:22:50;;;;;;;4.88;0.85;;;12.90;99.90;;;;;;4775583;30;20507;-78
2022/09/20 04:25:42;;;;;;;5.90;0.80;;;12.80;99.90;;;;;;4791881;29;20055;-78
2022/09/20 04:28:27;;;;;;;4.38;0.70;;;12.80;99.90;;;;;;4775240;29;20552;-78
2022/09/20 04:30:58;;;;;;;7.38;0.57;;;12.90;99.90;;;;;;4775440;30;20070;-78
2022/09/20 04:33:30;;;;;;;6.35;1.00;;;12.90;99.90;;;;;;4791617;30;20445;-78
2022/09/20 04:36:32;;;;;;;4.85;0.68;;;12.90;99.90;;;;;;4775807;30;20051;-78
2022/09/20 04:39:10;;;;;;;4.00;0.60;;;12.90;99.90;;;;;;4791643;30;20130;-78
2022/09/20 04:42:00;;;;;;;7.40;0.88;;;12.90;99.90;;;;;;4775351;30;20050;-78
2022/09/20 04:44:52;;;;;;;4.80;0.68;;;13.00;99.90;;;;;;4791560;30;20043;-80
2022/09/20 04:48:01;;;;;;;3.55;0.50;;;13.10;99.90;;;;;;4775244;30;20067;-79
2022/09/20 04:50:30;;;;;;;7.88;0.63;;;13.10;99.90;;;;;;4791362;30;20099;-79
2022/09/20 04:52:55;;;;;;;8.63;1.10;;;13.10;99.90;;;;;;4775272;30;20066;-78
2022/09/20 04:55:55;;;;;;;6.72;1.02;;;13.10;99.90;;;;;;4775011;30;20048;-79
2022/09/20 04:58:45;;;;;;;3.33;0.40;;;13.10;99.90;;;;;;4791274;30;20137;-79
2022/09/20 05:01:18;;;;;;;5.35;0.65;;;13.00;99.90;;;;;;4791326;30;20047;-78
2022/09/20 05:04:08;;;;;;;5.75;0.63;;;13.00;99.90;;;;;;4791028;30;20055;-79
2022/09/20 05:06:57;;;;;;;5.05;0.63;;;12.90;99.90;;;;;;4791046;30;20051;-78
2022/09/20 05:09:55;;;;;;;2.75;0.50;;;12.90;99.90;;;;;;4790909;30;20113;-79
2022/09/20 05:12:33;;;;;;;3.40;0.60;;;12.90;99.90;;;;;;4741691;30;20061;-80
2022/09/20 05:15:22;;;;;;;8.32;0.57;;;12.90;99.90;;;;;;4773852;30;20086;-79
2022/09/20 05:18:15;;;;;;;8.63;0.95;;;12.90;99.90;;;;;;4774286;30;20510;-80
2022/09/20 05:20:56;;;;;;;5.05;0.60;;;12.90;99.90;;;;;;4774554;30;20059;-78
2022/09/20 05:23:50;;;;;;;4.22;0.40;;;12.90;99.90;;;;;;4774847;30;20059;-78
2022/09/20 05:26:48;;;;;;;4.45;1.10;;;12.90;99.90;;;;;;4774675;30;20051;-79
2022/09/20 05:29:28;;;;;;;4.88;0.50;;;12.80;99.90;;;;;;4774211;30;20081;-79
2022/09/20 05:32:17;;;;;;;8.93;0.57;;;12.80;99.90;;;;;;4774614;30;20055;-78
2022/09/20 05:35:00;;;;;;;2.70;0.50;;;12.80;99.90;;;;;;4774320;30;20408;-79
2022/09/20 05:37:49;;;;;;;4.50;0.45;;;12.80;99.90;;;;;;4774303;30;20060;-79
2022/09/20 05:40:15;;;;;;;3.88;0.55;;;12.80;99.90;;;;;;4790420;29;20058;-79
2022/09/20 05:43:10;;;;;;;1.90;0.43;;;12.80;99.90;;;;;;4790573;30;20047;-80
2022/09/20 05:46:12;;;;;;;3.05;0.30;;;12.80;99.90;;;;;;4790499;30;20063;-80
2022/09/20 05:48:56;;;;;;;4.57;0.70;;;12.80;99.90;;;;;;4790091;30;20420;-80
2022/09/20 05:51:44;;;;;;;2.20;0.40;;;12.90;99.90;;;;;;4773958;30;20568;-79
2022/09/20 05:54:36;;;;;;;4.80;0.60;;;12.90;99.90;;;;;;4790138;30;20138;-80
2022/09/20 05:57:34;;;;;;;7.13;1.02;;;12.90;99.90;;;;;;4774168;30;20492;-80
2022/09/20 06:00:21;;;;;;;5.03;0.52;;;12.90;99.90;;;;;;4774112;30;20124;-80
2022/09/20 06:03:33;;;;;;;5.15;0.55;;;13.00;99.90;;;;;;4773860;30;20051;-82
2022/09/20 06:06:13;;;;;;;6.93;0.50;;;13.00;99.90;;;;;;4769366;30;20389;-79
2022/09/20 06:08:58;;;;;;;4.63;0.93;;;13.10;99.90;;;;;;4773915;30;20600;-79
2022/09/20 06:11:50;;;;;;;4.68;0.90;;;13.10;99.90;;;;;;4773647;30;20059;-79
2022/09/20 06:14:43;;;;;;;3.30;0.40;;;13.10;99.90;;;;;;4773640;30;20126;-81
2022/09/20 06:17:41;;;;;;;6.10;0.90;;;13.10;99.90;;;;;;4773720;30;20513;-79
2022/09/20 06:20:19;;;;;;;4.25;0.60;;;13.10;99.90;;;;;;4773347;30;20091;-79
2022/09/20 06:22:49;;;;;;;5.53;0.82;;;13.10;99.90;;;;;;4783469;30;20138;-78
2022/09/20 06:25:28;;;;;;;5.53;0.55;;;13.10;99.90;;;;;;4771523;30;20496;-78
2022/09/20 06:28:16;;;;;;;4.50;0.50;;;13.10;99.90;;;;;;4771217;30;20036;-79
2022/09/20 06:30:50;;;;;;;3.67;0.60;;;13.20;99.90;;;;;;4771683;30;20070;-79
2022/09/20 06:33:19;;;;;;;4.40;0.55;;;13.20;99.90;;;;;;4755514;30;20048;-78
2022/09/20 06:41:59;;;;;;;4.82;0.75;;;13.40;99.90;;;;;;4755236;30;20103;-79
2022/09/20 06:44:25;;;;;;;6.22;1.38;;;13.40;99.90;;;;;;4771487;30;20193;-79
2022/09/20 06:46:53;;;;;;;3.15;0.40;;;13.50;99.90;;;;;;4755073;30;20138;-77
2022/09/20 06:49:20;;;;;;;4.20;0.60;;;13.50;99.90;;;;;;4755019;30;20177;-78
2022/09/20 06:51:48;;;;;;;4.38;0.60;;;13.60;99.90;;;;;;4771284;30;20056;-77
2022/09/20 06:54:17;;;;;;;4.65;0.80;;;13.60;99.90;;;;;;4755174;30;20103;-78
2022/09/20 06:56:45;;;;;;;6.40;0.80;;;13.70;99.90;;;;;;4755290;30;20052;-78
2022/09/20 06:59:11;;;;;;;6.55;0.65;;;13.70;99.90;;;;;;4771169;30;20055;-79
2022/09/20 07:01:37;;;;;;;3.92;0.60;;;13.70;99.90;;;;;;4771245;30;20059;-78
2022/09/20 07:04:05;;;;;;;5.32;0.50;;;13.90;99.90;;;;;;4770867;30;20443;-78
2022/09/20 07:06:31;;;;;;;4.40;0.52;;;13.90;99.90;;;;;;4770776;30;20066;-78
2022/09/20 07:08:57;;;;;;;7.38;1.10;;;14.00;99.90;;;;;;4754990;30;20048;-78
2022/09/20 07:11:23;;;;;;;10.30;1.05;;;14.00;99.90;;;;;;4770897;30;20471;-78
2022/09/20 07:13:51;;;;;;;5.72;0.75;;;14.00;99.90;;;;;;4770958;30;20052;-78
2022/09/20 07:16:17;;;;;;;8.15;0.88;;;14.10;99.90;;;;;;4770815;30;20054;-78
2022/09/20 07:18:43;;;;;;;3.17;0.52;;;14.10;99.90;;;;;;4770706;30;20492;-80
2022/09/20 07:21:13;;;;;;;6.57;0.63;;;14.20;99.90;;;;;;4764216;30;20055;-79
2022/09/20 07:23:39;;;;;;;4.05;1.20;;;14.30;99.90;;;;;;4770529;30;20403;-80
2022/09/20 07:26:06;;;;;;;4.45;0.63;;;14.30;99.90;;;;;;4754637;30;20509;-79
2022/09/20 07:28:33;;;;;;;2.45;0.40;;;14.30;99.90;;;;;;4770422;30;20397;-80
2022/09/20 07:31:00;;;;;;;6.00;0.70;;;14.30;99.90;;;;;;4782875;30;20066;-80
2022/09/20 07:33:25;;;;;;;4.03;0.75;;;14.20;99.90;;;;;;4754681;30;20062;-80
2022/09/20 07:35:55;;;;;;;6.25;1.00;;;14.20;99.90;;;;;;4754620;30;20055;-80
2022/09/20 07:38:21;;;;;;;5.55;1.33;;;14.20;99.90;;;;;;4754462;30;20048;-79
2022/09/20 07:40:55;;;;;;;5.55;0.80;;;14.20;99.90;;;;;;4753776;30;20059;-80
2022/09/20 07:43:21;;;;;;;6.03;0.70;;;14.30;99.90;;;;;;4759157;30;20124;-80
2022/09/20 07:45:53;;;;;;;6.05;0.60;;;14.30;99.90;;;;;;4788144;30;20065;-79
2022/09/20 07:48:20;;;;;;;5.13;0.65;;;14.40;99.90;;;;;;4772065;29;20055;-79
2022/09/20 07:51:00;;;;;;;6.80;0.60;;;14.50;99.90;;;;;;4772002;30;20066;-78
2022/09/20 07:53:26;;;;;;;5.72;0.63;;;14.60;99.90;;;;;;4788468;29;20062;-79
2022/09/20 07:56:05;;;;;;;6.15;0.63;;;14.80;99.90;;;;;;4771718;30;20055;-79
2022/09/20 07:58:32;;;;;;;7.63;0.90;;;15.00;99.90;;;;;;4787846;29;20055;-79
2022/09/20 08:01:01;;;;;;;3.63;0.73;;;15.20;99.90;;;;;;4788042;30;20047;-79
2022/09/20 08:03:29;;;;;;;5.70;0.50;;;15.30;99.90;;;;;;4772016;30;20059;-80
2022/09/20 08:06:07;;;;;;;5.03;0.70;;;15.30;99.90;;;;;;4787921;30;20066;-80
2022/09/20 08:08:37;;;;;;;3.55;0.85;;;15.40;99.90;;;;;;4788082;29;20047;-79
2022/09/20 08:11:05;;;;;;;3.95;0.60;;;15.30;99.90;;;;;;4771713;30;20051;-80
2022/09/20 08:13:35;;;;;;;7.00;0.80;;;15.30;99.90;;;;;;4787964;30;20057;-80
2022/09/20 08:16:09;;;;;;;5.20;1.42;;;15.20;99.90;;;;;;4788163;30;20047;-80
2022/09/20 08:18:36;;;;;;;3.83;0.40;;;15.10;99.90;;;;;;4787884;30;20103;-80
2022/09/20 08:21:10;;;;;;;5.47;0.90;;;15.00;99.90;;;;;;4771715;30;20043;-81
2022/09/20 08:23:41;;;;;;;4.88;0.80;;;15.00;99.90;;;;;;4788034;29;20059;-81
2022/09/20 08:26:12;;;;;;;6.25;0.80;;;14.90;99.90;;;;;;4788193;29;20047;-81
2022/09/20 08:28:43;;;;;;;5.13;0.80;;;14.80;99.90;;;;;;4772085;30;20495;-80
2022/09/20 08:31:18;;;;;;;5.28;0.85;;;14.80;99.90;;;;;;4771870;30;20062;-80
2022/09/20 08:33:44;;;;;;;5.57;0.75;;;14.80;99.90;;;;;;4772068;30;20192;-80
2022/09/20 08:36:12;;;;;;;8.85;1.02;;;14.90;99.90;;;;;;4787675;30;20055;-81
2022/09/20 08:38:38;;;;;;;5.70;0.90;;;15.00;99.90;;;;;;4771796;30;20491;-80
2022/09/20 08:41:09;;;;;;;7.68;0.93;;;15.10;99.90;;;;;;4787946;29;20054;-79
2022/09/20 08:43:41;;;;;;;6.47;1.05;;;15.20;99.90;;;;;;4788073;30;20047;-82
2022/09/20 08:46:13;;;;;;;3.97;0.75;;;15.40;99.90;;;;;;4771829;30;20067;-80
2022/09/20 08:48:39;;;;;;;5.82;0.70;;;15.60;99.90;;;;;;4787621;29;20059;-80
2022/09/20 08:51:05;;;;;;;5.70;0.75;;;15.70;99.90;;;;;;4766711;30;20067;-81
2022/09/20 08:53:32;;;;;;;5.45;0.68;;;15.80;99.90;;;;;;4764938;30;20112;-80
2022/09/20 08:56:00;;;;;;;2.63;0.50;;;15.90;99.90;;;;;;4773161;30;20094;-80
2022/09/20 08:58:26;;;;;;;4.45;0.70;;;16.00;99.90;;;;;;4757068;30;20063;-80
2022/09/20 09:00:55;;;;;;;8.95;1.23;;;16.00;99.90;;;;;;4773286;30;20039;-81
2022/09/20 09:03:25;;;;;;;3.15;0.70;;;16.10;99.90;;;;;;4772523;30;20048;-80
2022/09/20 09:05:56;;;;;;;5.53;0.95;;;16.20;99.90;;;;;;4773087;30;20050;-80
2022/09/20 09:08:52;;;;;;;4.13;0.73;;;16.40;99.90;;;;;;4756919;30;20051;-81
2022/09/20 09:11:22;;;;;;;2.25;0.70;;;16.50;99.90;;;;;;4744187;30;20125;-80
2022/09/20 09:14:47;;;;;;;3.95;0.70;;;16.50;99.90;;;;;;4784062;29;20157;-81
2022/09/20 09:16:59;;;;;;;5.80;0.93;;;16.60;99.90;;;;;;4786380;29;20081;-82
2022/09/20 09:19:31;;;;;;;3.25;1.70;;;16.70;99.90;;;;;;4792787;29;20062;-80
2022/09/20 09:22:02;;;;;;;6.20;1.23;;;16.70;99.90;;;;;;4808104;29;20061;-80
2022/09/20 09:24:31;;;;;;;2.10;0.55;;;16.80;99.90;;;;;;4790475;29;20762;-81
2022/09/20 09:27:15;;;;;;;4.15;0.70;;;17.00;99.90;;;;;;4790379;29;20572;-81
2022/09/20 09:29:55;;;;;;;4.15;0.60;;;17.10;99.90;;;;;;4806884;29;20451;-82
2022/09/20 09:32:20;;;;;;;6.22;0.60;;;17.20;99.90;;;;;;4807610;29;20054;-82
2022/09/20 09:34:49;;;;;;;3.50;0.50;;;17.30;99.90;;;;;;4792195;29;20395;-83
2022/09/20 09:37:29;;;;;;;5.32;0.70;;;17.30;99.90;;;;;;4808832;29;20146;-81
2022/09/20 09:40:17;;;;;;;5.22;0.60;;;17.30;99.90;;;;;;4808742;29;20090;-81
2022/09/20 09:42:55;;;;;;;6.13;0.90;;;17.50;99.90;;;;;;4792391;29;20086;-81
2022/09/20 09:45:39;;;;;;;5.03;0.50;;;17.60;99.90;;;;;;4808704;29;20384;-80
2022/09/20 09:48:16;;;;;;;5.13;0.57;;;17.70;99.90;;;;;;4808280;29;20116;-81
2022/09/20 09:50:42;;;;;;;3.17;0.70;;;17.90;99.90;;;;;;4792192;29;20085;-81
2022/09/20 09:53:12;;;;;;;6.30;0.60;;;17.90;99.90;;;;;;4792045;29;20483;-81
2022/09/20 09:56:10;;;;;;;5.43;0.70;;;18.00;99.90;;;;;;4791945;29;20090;-80
2022/09/20 09:59:06;;;;;;;4.35;0.70;;;17.80;99.90;;;;;;4755150;29;20078;-80
2022/09/20 10:01:55;;;;;;;5.13;0.90;;;17.80;99.90;;;;;;4751149;29;20588;-80
2022/09/20 10:04:28;;;;;;;4.93;0.70;;;17.80;99.90;;;;;;4791030;29;20187;-81
2022/09/20 10:07:14;;;;;;;5.15;0.65;;;17.70;99.90;;;;;;4791978;29;20055;-81
2022/09/20 10:10:01;;;;;;;6.47;0.70;;;17.70;99.90;;;;;;4807841;29;20083;-83
2022/09/20 10:12:45;;;;;;;3.53;0.40;;;17.80;99.90;;;;;;4791951;29;20051;-82
2022/09/20 10:15:25;;;;;;;4.28;0.60;;;17.90;99.90;;;;;;4808173;29;20078;-81
2022/09/20 10:18:24;;;;;;;6.45;0.82;;;18.00;99.90;;;;;;4791494;29;20062;-81
2022/09/20 10:21:11;;;;;;;8.00;0.60;;;18.10;99.90;;;;;;4807988;29;20063;-81
2022/09/20 10:23:43;;;;;;;4.45;0.63;;;18.10;99.90;;;;;;4807969;29;20047;-81
2022/09/20 10:26:27;;;;;;;5.57;0.55;;;18.30;99.90;;;;;;4807980;29;20050;-83
2022/09/20 10:29:07;;;;;;;5.93;0.63;;;18.30;99.90;;;;;;4807651;29;20098;-82
2022/09/20 10:31:58;;;;;;;4.45;0.60;;;18.40;99.90;;;;;;4807979;29;20130;-82
2022/09/20 10:34:55;;;;;;;3.28;0.70;;;18.60;99.90;;;;;;4807828;29;20147;-82
2022/09/20 10:37:40;;;;;;;1.67;0.35;;;18.70;99.90;;;;;;4807641;29;20090;-82
2022/09/20 10:43:13;;;;;;;3.92;0.55;;;18.70;99.90;;;;;;4807725;29;20050;-81
2022/09/20 10:43:52;;;;;;;4.15;0.57;;;18.80;99.90;;;;;;4807812;29;20413;-83
2022/09/20 10:46:55;;;;;;;2.67;0.32;;;18.90;99.90;;;;;;4766593;29;20086;-83
2022/09/20 11:57:32;;;;;;;2.75;0.30;;;18.90;99.90;;;;;;5000021;24;20511;-84
2022/09/20 12:00:03;;;;;;;3.97;0.40;;;18.80;99.90;;;;;;4788103;30;20492;-83
2022/09/20 12:02:41;;;;;;;4.05;0.50;;;18.60;99.90;;;;;;4786722;30;20104;-83
2022/09/20 12:05:22;;;;;;;1.77;0.35;;;18.70;99.90;;;;;;4787206;30;20082;-84
2022/09/20 12:07:53;;;;;;;5.00;0.50;;;18.80;99.90;;;;;;4787279;30;20081;-85
2022/09/20 12:10:33;;;;;;;1.92;0.40;;;18.80;99.90;;;;;;4786982;30;20048;-84
2022/09/20 12:13:02;;;;;;;3.08;0.40;;;18.80;99.90;;;;;;4786873;30;20496;-84
2022/09/20 12:15:40;;;;;;;5.53;0.73;;;19.00;99.90;;;;;;4787003;30;20058;-84
2022/09/20 12:18:32;;;;;;;5.95;0.77;;;19.20;99.90;;;;;;4788479;29;20108;-84
2022/09/20 12:21:16;;;;;;;5.63;0.75;;;19.30;99.90;;;;;;4745401;30;20560;-84
2022/09/20 12:23:55;;;;;;;5.25;0.77;;;19.50;99.90;;;;;;4786937;30;20051;-85
2022/09/20 12:26:21;;;;;;;6.22;0.70;;;19.70;99.90;;;;;;4787390;29;20050;-83
2022/09/20 12:28:53;;;;;;;5.32;0.57;;;19.90;99.90;;;;;;4790247;30;20051;-82
2022/09/20 12:31:25;;;;;;;4.53;0.60;;;19.90;99.90;;;;;;4790225;29;20099;-85
2022/09/20 12:34:11;;;;;;;6.70;0.52;;;19.80;99.90;;;;;;4775324;30;20412;-85
2022/09/20 12:36:42;;;;;;;4.55;0.50;;;19.80;99.90;;;;;;4790456;30;20067;-84
2022/09/20 12:39:09;;;;;;;5.65;0.75;;;19.70;99.90;;;;;;4790215;30;20051;-84
2022/09/20 12:41:57;;;;;;;8.20;0.80;;;19.70;99.90;;;;;;4769034;30;20066;-85
2022/09/20 12:44:47;;;;;;;4.47;0.60;;;19.60;99.90;;;;;;4756735;30;20055;-83
2022/09/20 12:47:12;;;;;;;4.95;0.88;;;19.60;99.90;;;;;;4772267;30;20415;-84
2022/09/20 12:52:49;;;;;;;5.10;0.88;;;19.70;99.90;;;;;;4786966;29;20079;-84
2022/09/20 12:55:35;;;;;;;4.07;0.45;;;19.50;99.90;;;;;;4757359;30;20066;-83
2022/09/20 12:58:04;;;;;;;3.83;0.50;;;19.60;99.90;;;;;;4771516;30;20075;-84
2022/09/20 13:00:41;;;;;;;3.10;0.30;;;19.40;99.90;;;;;;4771773;30;20428;-86
2022/09/20 13:03:27;;;;;;;4.88;0.70;;;19.20;99.90;;;;;;4771755;30;20124;-82
2022/09/20 13:06:09;;;;;;;4.13;0.32;;;19.30;99.90;;;;;;4771643;30;20060;-84
2022/09/20 13:09:07;;;;;;;6.28;0.57;;;19.50;99.90;;;;;;4771558;30;20105;-85
2022/09/20 13:11:49;;;;;;;2.63;0.30;;;19.50;99.90;;;;;;4771503;30;20120;-84
2022/09/20 13:14:27;;;;;;;4.80;0.53;;;19.50;99.90;;;;;;4771643;30;20056;-85
2022/09/20 13:16:58;;;;;;;4.15;0.70;;;19.40;99.90;;;;;;4771670;30;20109;-85
2022/09/20 13:19:37;;;;;;;3.67;0.60;;;19.20;99.90;;;;;;4771291;30;20408;-87
2022/09/20 13:22:13;;;;;;;3.15;0.63;;;19.00;99.90;;;;;;4771658;30;20059;-82
2022/09/20 13:24:43;;;;;;;5.78;0.50;;;19.20;99.90;;;;;;4772716;30;20059;-82
2022/09/20 13:27:33;;;;;;;5.13;0.80;;;19.30;99.90;;;;;;4771304;30;20056;-81
2022/09/20 13:30:19;;;;;;;3.53;0.77;;;19.20;99.90;;;;;;4763369;30;20074;-83
2022/09/20 13:32:46;;;;;;;5.65;0.82;;;19.20;99.90;;;;;;4771099;30;20048;-83
2022/09/20 13:35:13;;;;;;;7.97;0.77;;;19.10;99.90;;;;;;4771042;30;20058;-84
2022/09/20 13:37:51;;;;;;;5.05;0.50;;;19.00;99.90;;;;;;4771250;30;20051;-83
2022/09/20 13:40:32;;;;;;;4.40;0.50;;;18.90;99.90;;;;;;4770851;30;20108;-84
2022/09/20 13:43:04;;;;;;;4.15;0.88;;;18.80;99.90;;;;;;4771216;30;20062;-83
2022/09/20 13:45:31;;;;;;;5.57;0.47;;;18.80;99.90;;;;;;4771136;30;20090;-84
2022/09/20 18:55:54;;;;;;;9.43;0.90;;;13.70;99.90;;;;;;5191786;22;20390;-86
2022/09/20 19:15:07;;;;;;;4.18;0.82;;;13.40;99.90;;;;;;5353145;22;20045;-81
2022/09/20 19:18:04;;;;;;;5.18;0.68;;;13.40;99.90;;;;;;5049517;28;20045;-81
2022/09/20 19:20:45;;;;;;;4.10;1.00;;;13.40;99.90;;;;;;5049364;28;20120;-80
2022/09/20 19:23:32;;;;;;;7.20;1.02;;;13.40;99.90;;;;;;5050470;28;20056;-81
2022/09/20 19:26:06;;;;;;;4.40;0.95;;;13.40;99.90;;;;;;5049334;28;20049;-80
2022/09/20 19:28:32;;;;;;;8.85;1.13;;;13.40;99.90;;;;;;5050377;28;20049;-81
2022/09/20 19:30:58;;;;;;;5.28;1.35;;;13.40;99.90;;;;;;5049093;28;20063;-81
2022/09/20 19:33:24;;;;;;;9.15;0.80;;;13.40;99.90;;;;;;5048887;28;20080;-81
2022/09/20 19:35:50;;;;;;;5.53;0.77;;;13.30;99.90;;;;;;5048695;28;20087;-81
2022/09/20 19:38:44;;;;;;;4.32;1.00;;;13.30;99.90;;;;;;5050185;28;20045;-81
2022/09/20 19:42:00;;;;;;;6.85;0.85;;;13.20;99.90;;;;;;5048629;28;20045;-81
2022/09/20 19:44:42;;;;;;;4.15;0.65;;;13.20;99.90;;;;;;5045040;28;20081;-81
2022/09/20 20:06:23;;;;;;;5.53;1.10;;;12.40;99.90;;;;;;5076766;22;20056;-82
2022/09/20 20:09:03;;;;;;;5.28;1.02;;;12.30;99.90;;;;;;5076379;28;20097;-83
2022/09/20 20:12:07;;;;;;;4.35;1.00;;;12.20;99.90;;;;;;5058045;28;20040;-84
2022/09/20 20:14:54;;;;;;;5.03;1.23;;;12.10;99.90;;;;;;5057844;28;20048;-84
2022/09/20 20:17:35;;;;;;;6.95;1.35;;;12.10;99.90;;;;;;5058753;28;20064;-84
2022/09/20 20:20:25;;;;;;;6.10;1.35;;;12.10;99.90;;;;;;5058352;28;20499;-87
2022/09/20 20:23:27;;;;;;;5.05;1.55;;;12.00;99.90;;;;;;5057681;28;20434;-83
2022/09/20 20:26:07;;;;;;;5.07;1.98;;;11.90;99.90;;;;;;5075793;28;20399;-85
2022/09/20 20:28:33;;;;;;;5.05;2.03;;;11.90;99.90;;;;;;5075823;28;20047;-85
2022/09/20 20:31:00;;;;;;;9.00;1.90;;;11.90;99.90;;;;;;5057689;28;20534;-84
2022/09/20 20:33:31;;;;;;;6.50;1.75;;;11.90;99.90;;;;;;5075926;28;20491;-81
2022/09/20 20:35:59;;;;;;;6.80;1.55;;;11.90;99.90;;;;;;5057807;28;20048;-84
2022/09/20 20:38:26;;;;;;;9.60;1.88;;;11.80;99.90;;;;;;5075386;28;20495;-84
2022/09/20 20:41:03;;;;;;;6.18;1.42;;;11.80;99.90;;;;;;5058244;28;20063;-84
2022/09/20 20:43:30;;;;;;;5.47;1.73;;;11.70;99.90;;;;;;5057897;28;20391;-83
2022/09/20 20:45:56;;;;;;;4.05;1.40;;;11.70;99.90;;;;;;5075570;28;20068;-83
2022/09/20 20:48:21;;;;;;;5.32;1.35;;;11.60;99.90;;;;;;5075546;28;20083;-83
2022/09/20 20:50:47;;;;;;;6.68;1.67;;;11.60;99.90;;;;;;5057349;28;20044;-84
2022/09/20 20:53:13;;;;;;;9.13;2.00;;;11.50;99.90;;;;;;5075260;28;20054;-83
2022/09/20 20:55:40;;;;;;;4.18;1.30;;;11.50;99.90;;;;;;5075203;28;20040;-83
2022/09/20 20:58:12;;;;;;;5.25;1.60;;;11.40;99.90;;;;;;5057130;28;20071;-83